Time;durP1;ratioP1;P1;durP2;ratioP2;P2;SDS_P1;SDS_P2;PMS_P1;PMS_P2;Temp;Humidity;BMP_temperature;BMP_pressure;BME280_temperature;BME280_humidity;BME280_pressure;Samples;Min_cycle;Max_cycle;Signal;HPM_P1;HPM_P2
2024/02/09 00:00:18;;;;;;;5.80;3.23;;;9.70;99.90;;;;;;5084344;28;20460;-28
2024/02/09 00:02:47;;;;;;;6.27;3.33;;;9.70;99.90;;;;;;5059509;28;20445;-27
2024/02/09 00:05:16;;;;;;;5.07;3.43;;;9.70;99.90;;;;;;5089835;28;20461;-28
2024/02/09 00:07:48;;;;;;;5.60;3.70;;;9.80;99.90;;;;;;5056726;28;20459;-26
2024/02/09 00:10:18;;;;;;;5.63;3.77;;;9.80;99.90;;;;;;5087054;28;20438;-27
2024/02/09 00:12:44;;;;;;;4.57;3.33;;;9.80;99.90;;;;;;5093684;28;20448;-26
2024/02/09 00:15:10;;;;;;;10.27;3.40;;;9.80;99.90;;;;;;5097873;28;21052;-28
2024/02/09 00:17:39;;;;;;;11.03;4.00;;;9.80;99.90;;;;;;5049301;28;20465;-29
2024/02/09 00:20:10;;;;;;;7.10;3.50;;;9.80;99.90;;;;;;5059419;28;20445;-27
2024/02/09 00:22:37;;;;;;;6.73;3.20;;;9.80;99.90;;;;;;5093774;28;21413;-27
2024/02/09 00:25:08;;;;;;;12.93;3.27;;;9.80;99.90;;;;;;5052674;28;20491;-27
2024/02/09 00:27:35;;;;;;;9.93;4.17;;;9.80;99.90;;;;;;5051067;28;20433;-26
2024/02/09 00:30:01;;;;;;;7.57;3.83;;;9.80;99.90;;;;;;5090326;28;20447;-26
2024/02/09 00:32:27;;;;;;;7.37;4.30;;;9.80;99.90;;;;;;5036084;28;20461;-27
2024/02/09 00:34:54;;;;;;;6.67;3.63;;;9.80;99.90;;;;;;5053739;28;20432;-27
2024/02/09 00:37:21;;;;;;;7.40;3.70;;;9.80;99.90;;;;;;5092925;28;20558;-27
2024/02/09 00:39:52;;;;;;;6.80;3.77;;;9.80;99.90;;;;;;5094027;28;20443;-27
2024/02/09 00:42:20;;;;;;;7.60;3.50;;;9.80;99.90;;;;;;5063179;28;20440;-27
2024/02/09 00:44:46;;;;;;;7.10;3.60;;;9.80;99.90;;;;;;5100577;28;20423;-27
2024/02/09 00:47:15;;;;;;;4.97;3.40;;;9.80;99.90;;;;;;5083436;28;20475;-27
2024/02/09 00:49:45;;;;;;;7.03;3.43;;;9.80;99.90;;;;;;5092460;28;20476;-27
2024/02/09 00:52:11;;;;;;;7.50;3.40;;;9.80;99.90;;;;;;5098830;28;20475;-27
2024/02/09 00:54:38;;;;;;;6.10;3.43;;;9.80;99.90;;;;;;5056258;28;20437;-26
2024/02/09 00:57:07;;;;;;;4.93;3.50;;;9.80;99.90;;;;;;5068575;28;20459;-27
2024/02/09 00:59:38;;;;;;;7.00;3.33;;;9.90;99.90;;;;;;5039671;28;20453;-27
2024/02/09 01:02:06;;;;;;;8.33;3.97;;;9.80;99.90;;;;;;5092561;28;20586;-28
2024/02/09 01:04:37;;;;;;;11.20;4.03;;;9.90;99.90;;;;;;5053083;28;20406;-28
2024/02/09 01:07:04;;;;;;;8.30;3.47;;;9.90;99.90;;;;;;5089810;28;20946;-27
2024/02/09 01:09:33;;;;;;;4.67;3.70;;;9.90;99.90;;;;;;5032738;28;20429;-27
2024/02/09 02:45:11;;;;;;;5.07;3.60;;;10.00;99.90;;;;;;5037417;28;20436;-27
2024/02/09 02:47:41;;;;;;;9.13;3.40;;;10.10;99.90;;;;;;5090038;28;20439;-27
2024/02/09 03:06:40;;;;;;;10.23;4.63;;;10.00;99.90;;;;;;5082268;28;21035;-26
2024/02/09 03:09:06;;;;;;;6.97;3.90;;;10.10;99.90;;;;;;5053741;28;20963;-26
2024/02/09 03:11:32;;;;;;;7.37;3.80;;;10.00;99.90;;;;;;5100088;28;20436;-27
2024/02/09 03:14:01;;;;;;;13.27;3.50;;;10.10;99.90;;;;;;5057418;28;20191;-26
2024/02/09 03:16:27;;;;;;;5.50;3.23;;;10.10;99.90;;;;;;5065330;28;20460;-27
2024/02/09 03:18:53;;;;;;;11.03;4.17;;;10.10;99.90;;;;;;5091842;28;20535;-26
2024/02/09 03:21:26;;;;;;;5.60;3.60;;;10.10;99.90;;;;;;5095799;28;20421;-25
2024/02/09 03:23:56;;;;;;;5.50;3.40;;;10.10;99.90;;;;;;5092021;28;20935;-27
2024/02/09 03:26:24;;;;;;;5.97;3.90;;;10.10;99.90;;;;;;5087079;28;20417;-26
2024/02/09 03:28:52;;;;;;;7.23;3.50;;;10.10;99.90;;;;;;5086223;28;21232;-27
2024/02/09 03:31:19;;;;;;;6.37;4.00;;;10.10;99.90;;;;;;5083689;28;20486;-27
2024/02/09 03:33:45;;;;;;;7.20;3.43;;;10.10;99.90;;;;;;5087030;28;20528;-26
2024/02/09 03:36:20;;;;;;;6.93;3.73;;;10.10;99.90;;;;;;5086559;28;20533;-27
2024/02/09 03:38:48;;;;;;;5.77;3.50;;;10.10;99.90;;;;;;5083612;28;21360;-27
2024/02/09 03:41:14;;;;;;;7.60;4.53;;;10.10;99.90;;;;;;5090354;28;21075;-27
2024/02/09 03:43:40;;;;;;;5.47;3.50;;;10.10;99.90;;;;;;5036064;28;20422;-27
2024/02/09 03:46:06;;;;;;;5.87;3.83;;;10.10;99.90;;;;;;5093113;28;20450;-27
2024/02/09 03:48:32;;;;;;;7.27;3.53;;;10.10;99.90;;;;;;5076733;28;20482;-27
2024/02/09 03:50:58;;;;;;;6.00;3.63;;;10.10;99.90;;;;;;5060687;28;20429;-26
2024/02/09 03:53:24;;;;;;;7.63;4.03;;;10.20;99.90;;;;;;5083581;28;20472;-26
2024/02/09 03:55:50;;;;;;;8.03;3.67;;;10.20;99.90;;;;;;5089132;28;20459;-27
2024/02/09 03:58:17;;;;;;;11.13;4.33;;;10.10;99.90;;;;;;5048956;28;20449;-28
2024/02/09 04:00:44;;;;;;;6.23;4.00;;;10.20;99.90;;;;;;5055371;28;20442;-27
2024/02/09 04:03:13;;;;;;;8.73;3.70;;;10.10;99.90;;;;;;5088908;22;20493;-28
2024/02/09 04:05:40;;;;;;;8.03;4.77;;;10.20;99.90;;;;;;5034207;28;21051;-28
2024/02/09 04:08:08;;;;;;;4.97;3.60;;;10.20;99.90;;;;;;5045018;28;20410;-27
2024/02/09 04:10:37;;;;;;;5.50;3.53;;;10.20;99.90;;;;;;5081885;28;20415;-29
2024/02/09 04:13:06;;;;;;;6.67;3.70;;;10.20;99.90;;;;;;5082649;28;20464;-27
2024/02/09 04:15:32;;;;;;;9.37;3.50;;;10.20;99.90;;;;;;5054418;28;20508;-29
2024/02/09 04:18:03;;;;;;;5.77;4.20;;;10.20;99.90;;;;;;5082760;28;20467;-29
2024/02/09 04:20:29;;;;;;;5.10;3.63;;;10.20;99.90;;;;;;5052855;28;20428;-29
2024/02/09 04:22:55;;;;;;;6.10;3.23;;;10.20;99.90;;;;;;5063414;28;20900;-28
2024/02/09 04:25:21;;;;;;;5.83;3.20;;;10.20;99.90;;;;;;5079724;28;20451;-27
2024/02/09 04:27:49;;;;;;;11.10;3.87;;;10.20;99.90;;;;;;5044532;28;21049;-29
2024/02/09 04:30:17;;;;;;;6.50;3.90;;;10.20;99.90;;;;;;5044382;28;20422;-28
2024/02/09 04:32:43;;;;;;;7.23;3.93;;;10.20;99.90;;;;;;5076044;28;20590;-28
2024/02/09 04:35:10;;;;;;;6.63;4.20;;;10.20;99.90;;;;;;5038240;28;20428;-28
2024/02/09 04:37:36;;;;;;;7.87;4.13;;;10.20;99.90;;;;;;5074189;28;20468;-28
2024/02/09 04:40:03;;;;;;;4.63;3.40;;;10.20;99.90;;;;;;5062392;28;20426;-28
2024/02/09 04:42:32;;;;;;;5.07;3.37;;;10.20;99.90;;;;;;5063769;28;20551;-28
2024/02/09 04:45:01;;;;;;;7.33;3.30;;;10.20;99.90;;;;;;5081379;28;20482;-28
2024/02/09 04:47:27;;;;;;;8.23;4.17;;;10.20;99.90;;;;;;5064508;28;20813;-28
2024/02/09 04:49:58;;;;;;;4.77;3.00;;;10.20;99.90;;;;;;5081450;28;20409;-29
2024/02/09 04:52:27;;;;;;;5.43;3.10;;;10.20;99.90;;;;;;5054426;28;20441;-27
2024/02/09 04:54:53;;;;;;;5.03;3.60;;;10.20;99.90;;;;;;5062741;28;20482;-28
2024/02/09 04:57:21;;;;;;;6.47;4.00;;;10.20;99.90;;;;;;5044376;28;20500;-26
2024/02/09 04:59:47;;;;;;;7.10;3.93;;;10.20;99.90;;;;;;5061843;28;20418;-28
2024/02/09 05:02:15;;;;;;;4.20;3.80;;;10.20;99.90;;;;;;5048939;28;20722;-27
2024/02/09 05:04:47;;;;;;;5.37;3.40;;;10.20;99.90;;;;;;5067765;28;20492;-28
2024/02/09 05:07:14;;;;;;;6.03;3.47;;;10.20;99.90;;;;;;5065806;28;20467;-28
2024/02/09 05:09:40;;;;;;;3.60;3.27;;;10.20;99.90;;;;;;5015688;28;20530;-28
2024/02/09 05:12:09;;;;;;;9.37;2.83;;;10.20;99.90;;;;;;5054299;28;20453;-29
2024/02/09 05:14:35;;;;;;;5.37;3.20;;;10.30;99.90;;;;;;5080291;28;20457;-28
2024/02/09 05:17:01;;;;;;;4.23;2.87;;;10.30;99.90;;;;;;5083140;28;20466;-28
2024/02/09 05:19:27;;;;;;;6.13;3.23;;;10.30;99.90;;;;;;5067475;28;20417;-28
2024/02/09 05:21:57;;;;;;;4.97;3.17;;;10.20;99.90;;;;;;5050010;28;20812;-29
2024/02/09 05:24:26;;;;;;;6.90;3.00;;;10.30;99.90;;;;;;5060228;28;20486;-27
2024/02/09 05:26:52;;;;;;;3.90;2.80;;;10.30;99.90;;;;;;5078399;28;20436;-27
2024/02/09 05:29:18;;;;;;;5.23;3.50;;;10.30;99.90;;;;;;5074742;28;21234;-28
2024/02/09 05:31:45;;;;;;;8.13;2.63;;;10.30;99.90;;;;;;5052700;28;20219;-28
2024/02/09 05:34:11;;;;;;;4.43;2.90;;;10.30;99.90;;;;;;5072838;28;20421;-28
2024/02/09 05:36:37;;;;;;;5.80;2.90;;;10.30;99.90;;;;;;5056480;28;20476;-28
2024/02/09 05:39:07;;;;;;;6.87;3.07;;;10.30;99.90;;;;;;5072412;28;20473;-29
2024/02/09 05:41:33;;;;;;;4.03;3.20;;;10.30;99.90;;;;;;5046829;28;21014;-28
2024/02/09 05:43:59;;;;;;;6.40;3.13;;;10.30;99.90;;;;;;5037963;28;20444;-29
2024/02/09 05:46:27;;;;;;;5.47;3.23;;;10.30;99.90;;;;;;5046711;28;20436;-29
2024/02/09 05:48:55;;;;;;;4.00;3.10;;;10.30;99.90;;;;;;5081432;28;20943;-27
2024/02/09 05:51:22;;;;;;;5.37;2.80;;;10.30;99.90;;;;;;5077450;28;20425;-28
2024/02/09 05:53:49;;;;;;;3.90;2.77;;;10.30;99.90;;;;;;5078345;28;20422;-27
2024/02/09 05:56:19;;;;;;;5.70;3.10;;;10.30;99.90;;;;;;5047423;28;20460;-28
2024/02/09 05:58:51;;;;;;;3.33;2.93;;;10.30;99.90;;;;;;5078519;28;20454;-27
2024/02/09 06:01:19;;;;;;;3.67;3.10;;;10.30;99.90;;;;;;5064140;28;20418;-27
2024/02/09 06:03:46;;;;;;;4.10;2.70;;;10.30;99.90;;;;;;5029698;28;20434;-29
2024/02/09 06:06:15;;;;;;;5.67;3.60;;;10.30;99.90;;;;;;5065866;28;20460;-28
2024/02/09 06:08:46;;;;;;;6.40;3.17;;;10.30;99.90;;;;;;5055984;28;20464;-28
2024/02/09 06:11:16;;;;;;;5.10;3.17;;;10.30;99.90;;;;;;5070965;28;20461;-29
2024/02/09 06:13:45;;;;;;;4.53;2.57;;;10.30;99.90;;;;;;5035337;28;20881;-28
2024/02/09 06:16:15;;;;;;;7.23;2.83;;;10.30;99.90;;;;;;5066543;28;20462;-28
2024/02/09 06:18:45;;;;;;;5.47;2.90;;;10.30;99.90;;;;;;5075796;28;20458;-28
2024/02/09 06:21:16;;;;;;;4.23;2.70;;;10.30;99.90;;;;;;5060184;28;20421;-28
2024/02/09 06:23:45;;;;;;;4.43;2.60;;;10.30;99.90;;;;;;5065555;28;20421;-28
2024/02/09 06:26:18;;;;;;;3.37;2.40;;;10.30;99.90;;;;;;5082536;28;20467;-28
2024/02/09 06:28:47;;;;;;;5.30;2.87;;;10.30;99.90;;;;;;5064104;28;20402;-28
2024/02/09 06:31:23;;;;;;;4.33;2.50;;;10.30;99.90;;;;;;5038042;28;20433;-28
2024/02/09 06:33:54;;;;;;;3.10;2.20;;;10.30;99.90;;;;;;5084286;28;20912;-28
2024/02/09 06:36:24;;;;;;;2.93;2.50;;;10.30;99.90;;;;;;5074840;28;20457;-29
2024/02/09 06:38:53;;;;;;;2.83;2.37;;;10.30;99.90;;;;;;5058045;28;20445;-28
2024/02/09 06:41:19;;;;;;;3.20;2.60;;;10.40;99.90;;;;;;5047528;28;20448;-29
2024/02/09 06:43:48;;;;;;;4.50;3.00;;;10.30;99.90;;;;;;5064994;28;20979;-28
2024/02/09 06:46:16;;;;;;;3.70;3.07;;;10.30;99.90;;;;;;5062386;28;20435;-29
2024/02/09 06:48:47;;;;;;;5.00;2.80;;;10.40;99.90;;;;;;5046093;28;20424;-28
2024/02/09 06:51:18;;;;;;;5.27;2.73;;;10.40;99.90;;;;;;5044631;28;21231;-28
2024/02/09 06:53:44;;;;;;;3.33;2.33;;;10.40;99.90;;;;;;5068293;28;20418;-29
2024/02/09 06:56:11;;;;;;;4.57;2.40;;;10.40;99.90;;;;;;5073600;28;20502;-27
2024/02/09 06:58:39;;;;;;;4.30;2.80;;;10.40;99.90;;;;;;5062862;28;21227;-27
2024/02/09 07:01:10;;;;;;;3.80;2.67;;;10.40;99.90;;;;;;5064418;28;20461;-29
2024/02/09 07:03:37;;;;;;;4.37;2.67;;;10.40;99.90;;;;;;5072847;28;21047;-28
2024/02/09 07:06:04;;;;;;;3.07;2.23;;;10.40;99.90;;;;;;5053897;28;20873;-27
2024/02/09 07:08:36;;;;;;;2.90;2.43;;;10.40;99.90;;;;;;5074078;28;20433;-28
2024/02/09 07:11:07;;;;;;;3.40;2.70;;;10.40;99.90;;;;;;5048322;28;20475;-29
2024/02/09 07:13:34;;;;;;;3.37;2.30;;;10.40;99.90;;;;;;5074016;28;20430;-26
2024/02/09 07:16:02;;;;;;;5.70;2.63;;;10.40;99.90;;;;;;5070567;28;20450;-28
2024/02/09 07:18:38;;;;;;;3.40;2.53;;;10.40;99.90;;;;;;5081288;28;20426;-29
2024/02/09 07:21:12;;;;;;;3.10;2.80;;;10.40;99.90;;;;;;5063731;28;20418;-25
2024/02/09 07:23:41;;;;;;;3.70;2.50;;;10.40;99.90;;;;;;5076060;28;20450;-27
2024/02/09 07:26:10;;;;;;;3.70;2.57;;;10.40;99.90;;;;;;5074462;28;20426;-26
2024/02/09 07:28:40;;;;;;;3.63;2.00;;;10.40;99.90;;;;;;5057172;28;20975;-27
2024/02/09 07:31:08;;;;;;;7.80;2.80;;;10.40;99.90;;;;;;5046157;28;20548;-28
2024/02/09 07:33:37;;;;;;;3.60;2.47;;;10.40;99.90;;;;;;5035461;28;20606;-27
2024/02/09 07:36:06;;;;;;;3.83;1.90;;;10.40;99.90;;;;;;5055336;28;20438;-27
2024/02/09 07:38:34;;;;;;;4.63;2.27;;;10.40;99.90;;;;;;5061667;28;20442;-28
2024/02/09 07:41:00;;;;;;;4.40;2.63;;;10.40;99.90;;;;;;5063025;28;20514;-29
2024/02/09 07:43:27;;;;;;;2.70;2.50;;;10.40;99.90;;;;;;5066696;28;20479;-27
2024/02/09 07:45:53;;;;;;;3.63;2.50;;;10.40;99.90;;;;;;5063949;28;21096;-34
2024/02/09 07:48:19;;;;;;;2.30;2.10;;;10.40;99.90;;;;;;5077223;28;21083;-26
2024/02/09 07:50:46;;;;;;;5.80;2.43;;;10.40;99.90;;;;;;5081727;28;20440;-28
2024/02/09 07:53:15;;;;;;;3.30;2.40;;;10.40;99.90;;;;;;5062664;28;20198;-27
2024/02/09 07:55:41;;;;;;;3.10;2.40;;;10.40;99.90;;;;;;5022937;28;20427;-28
2024/02/09 07:58:11;;;;;;;4.50;2.80;;;10.50;99.90;;;;;;5036146;28;20559;-28
2024/02/09 08:00:36;;;;;;;3.10;2.60;;;10.40;99.90;;;;;;5069451;28;20464;-27
2024/02/09 08:03:03;;;;;;;6.97;2.47;;;10.40;99.90;;;;;;5048387;28;20865;-28
2024/02/09 08:05:29;;;;;;;3.50;2.60;;;10.40;99.90;;;;;;5044284;28;20470;-27
2024/02/09 08:07:55;;;;;;;3.10;2.60;;;10.40;99.90;;;;;;5070152;28;20430;-27
2024/02/09 08:10:22;;;;;;;3.70;2.87;;;10.50;99.90;;;;;;5042126;28;20569;-24
2024/02/09 08:12:48;;;;;;;3.00;2.70;;;10.50;99.90;;;;;;5032769;28;20215;-28
2024/02/09 08:15:14;;;;;;;5.83;2.30;;;10.50;99.90;;;;;;5073884;28;20429;-25
2024/02/09 08:17:52;;;;;;;3.20;2.57;;;10.50;99.90;;;;;;5060871;28;20466;-27
2024/02/09 08:20:20;;;;;;;3.63;2.33;;;10.50;99.90;;;;;;5027234;28;20433;-25
2024/02/09 08:22:47;;;;;;;5.97;2.83;;;10.50;99.90;;;;;;5062044;28;20491;-27
2024/02/09 08:25:16;;;;;;;3.47;3.17;;;10.50;99.90;;;;;;5038265;28;20417;-25
2024/02/09 08:27:43;;;;;;;3.80;2.80;;;10.50;99.90;;;;;;5048527;28;20423;-28
2024/02/09 08:30:11;;;;;;;2.83;2.40;;;10.50;99.90;;;;;;5043577;28;20592;-28
2024/02/09 08:32:39;;;;;;;4.30;2.73;;;10.50;99.90;;;;;;5053681;28;20438;-28
2024/02/09 08:35:10;;;;;;;4.27;2.43;;;10.50;99.90;;;;;;5057711;28;20450;-27
2024/02/09 08:37:40;;;;;;;3.00;2.60;;;10.50;99.90;;;;;;5056899;28;20561;-27
2024/02/09 08:40:08;;;;;;;4.50;2.73;;;10.50;99.90;;;;;;5056071;28;20522;-27
2024/02/09 08:42:36;;;;;;;3.00;2.70;;;10.50;99.90;;;;;;5053972;28;20449;-27
2024/02/09 08:45:02;;;;;;;5.83;2.90;;;10.50;99.90;;;;;;5044427;28;21046;-27
2024/02/09 08:47:34;;;;;;;3.87;2.90;;;10.50;99.90;;;;;;5058178;28;21090;-27
2024/02/09 08:50:00;;;;;;;3.70;2.63;;;10.50;99.90;;;;;;5056239;28;20431;-26
2024/02/09 08:52:26;;;;;;;4.80;2.80;;;10.50;99.90;;;;;;5041741;28;20544;-26
2024/02/09 08:54:52;;;;;;;5.13;3.00;;;10.50;99.90;;;;;;5064789;28;20410;-27
2024/02/09 08:57:22;;;;;;;3.63;2.20;;;10.50;99.90;;;;;;5038220;28;20512;-26
2024/02/09 08:59:49;;;;;;;3.20;2.00;;;10.50;99.90;;;;;;5030588;28;20897;-27
2024/02/09 09:02:15;;;;;;;3.47;2.30;;;10.50;99.90;;;;;;5037187;28;20448;-27
2024/02/09 09:04:41;;;;;;;2.77;2.50;;;10.50;99.90;;;;;;5041456;28;21118;-27
2024/02/09 09:07:10;;;;;;;2.43;2.23;;;10.50;99.90;;;;;;5057914;28;20465;-27
2024/02/09 09:09:39;;;;;;;3.83;2.67;;;10.50;99.90;;;;;;5036078;28;20470;-27
2024/02/09 09:12:07;;;;;;;5.00;2.30;;;10.50;99.90;;;;;;5040515;28;20965;-28
2024/02/09 09:14:34;;;;;;;3.73;2.87;;;10.50;99.90;;;;;;5055459;28;20930;-27
2024/02/09 09:17:00;;;;;;;4.93;2.73;;;10.60;99.90;;;;;;5040156;28;20477;-27
2024/02/09 09:19:27;;;;;;;4.03;2.50;;;10.50;99.90;;;;;;5024335;28;20530;-27
2024/02/09 09:21:55;;;;;;;4.87;3.00;;;10.50;99.90;;;;;;5055428;28;20457;-27
2024/02/09 09:24:22;;;;;;;2.50;2.30;;;10.50;99.90;;;;;;5036644;28;20418;-26
2024/02/09 09:26:49;;;;;;;3.17;2.43;;;10.50;99.90;;;;;;5040848;28;21032;-26
2024/02/09 09:29:15;;;;;;;3.70;2.20;;;10.60;99.90;;;;;;5055660;28;20422;-27
2024/02/09 09:31:44;;;;;;;4.63;2.33;;;10.60;99.90;;;;;;5037761;28;20535;-27
2024/02/09 09:34:10;;;;;;;3.90;2.80;;;10.60;99.90;;;;;;5022919;28;20711;-27
2024/02/09 13:53:01;;;;;;;2.60;1.87;;;11.50;99.90;;;;;;5011289;28;20475;-35
2024/02/09 13:55:29;;;;;;;2.93;2.33;;;11.60;99.90;;;;;;4978457;28;21121;-34
2024/02/09 13:57:55;;;;;;;2.47;2.10;;;11.50;99.90;;;;;;4993653;28;20482;-34
2024/02/09 14:00:24;;;;;;;2.60;2.37;;;11.60;99.90;;;;;;5011485;28;20510;-32
2024/02/09 14:02:53;;;;;;;2.47;2.27;;;11.60;99.90;;;;;;4989147;28;20497;-36
2024/02/09 14:05:22;;;;;;;4.70;2.23;;;11.60;99.90;;;;;;5011321;28;20428;-33
2024/02/09 14:07:51;;;;;;;2.70;2.23;;;11.60;99.90;;;;;;5012645;28;20566;-32
2024/02/09 14:10:19;;;;;;;3.60;2.60;;;11.60;99.90;;;;;;5016076;28;20941;-30
2024/02/09 14:12:46;;;;;;;3.13;2.30;;;11.70;99.90;;;;;;4976068;28;20908;-35
2024/02/09 14:15:13;;;;;;;4.03;2.40;;;11.70;99.90;;;;;;5000249;28;20475;-30
2024/02/09 14:17:48;;;;;;;4.33;2.67;;;11.70;99.90;;;;;;5014449;28;21021;-30
2024/02/09 14:20:22;;;;;;;3.63;2.53;;;11.70;99.90;;;;;;5015570;28;21050;-32
2024/02/09 14:22:51;;;;;;;2.47;2.23;;;11.70;99.90;;;;;;4986476;28;20472;-28
2024/02/09 14:25:19;;;;;;;3.80;2.60;;;11.70;99.90;;;;;;5003975;28;20849;-32
2024/02/09 14:27:50;;;;;;;5.20;2.30;;;11.70;99.90;;;;;;4969800;28;20448;-31
2024/02/09 14:30:18;;;;;;;3.57;2.00;;;11.70;99.90;;;;;;5003393;28;20502;-29
2024/02/09 14:32:45;;;;;;;3.10;2.47;;;11.80;99.90;;;;;;4998592;28;20518;-29
2024/02/09 14:35:12;;;;;;;3.90;2.30;;;11.70;99.90;;;;;;5023774;28;20435;-34
2024/02/09 14:37:40;;;;;;;3.10;2.13;;;11.70;99.90;;;;;;5017674;28;21023;-28
2024/02/09 14:40:13;;;;;;;3.23;2.27;;;11.70;99.90;;;;;;5001846;28;20458;-31
2024/02/09 14:42:42;;;;;;;4.47;2.23;;;11.80;99.90;;;;;;5002894;28;20447;-33
2024/02/09 14:45:13;;;;;;;3.43;2.77;;;11.70;99.90;;;;;;5001109;28;20452;-30
2024/02/09 14:47:43;;;;;;;3.30;2.37;;;11.80;99.90;;;;;;4981979;28;20487;-30
2024/02/09 14:50:09;;;;;;;3.47;2.30;;;11.70;99.90;;;;;;5019037;28;20930;-28
2024/02/09 14:52:43;;;;;;;5.03;2.20;;;11.80;99.90;;;;;;5004481;28;20458;-28
2024/02/09 14:55:09;;;;;;;3.67;2.37;;;11.80;99.90;;;;;;5022729;28;20416;-29
2024/02/09 14:57:38;;;;;;;2.93;2.10;;;11.80;99.90;;;;;;4992175;28;20464;-32
2024/02/09 15:00:05;;;;;;;2.73;2.47;;;11.80;99.90;;;;;;5003665;28;20936;-32
2024/02/09 15:02:32;;;;;;;2.37;2.10;;;11.80;99.90;;;;;;4984760;28;20971;-31
2024/02/09 15:04:59;;;;;;;5.10;2.70;;;11.80;99.90;;;;;;5001246;28;20948;-29
2024/02/09 15:07:27;;;;;;;4.50;2.63;;;11.80;99.90;;;;;;5002498;28;20456;-33
2024/02/09 15:09:57;;;;;;;2.53;2.30;;;11.80;99.90;;;;;;5003224;28;20511;-32
2024/02/09 15:12:26;;;;;;;3.40;2.73;;;11.80;99.90;;;;;;4984485;28;20456;-35
2024/02/09 15:14:52;;;;;;;3.20;2.20;;;11.80;99.90;;;;;;5003255;28;20444;-33
2024/02/09 15:17:20;;;;;;;7.70;2.60;;;11.80;99.90;;;;;;5001513;28;21021;-32
2024/02/09 15:19:47;;;;;;;3.33;2.70;;;11.80;99.90;;;;;;4984086;28;20486;-30
2024/02/09 15:22:16;;;;;;;2.70;2.50;;;11.80;99.90;;;;;;4986420;28;20425;-32
2024/02/09 15:24:44;;;;;;;2.40;2.20;;;11.80;99.90;;;;;;5007637;28;20839;-30
2024/02/09 15:27:13;;;;;;;4.20;2.20;;;11.80;99.90;;;;;;5004553;28;20443;-29
2024/02/09 15:29:41;;;;;;;3.33;2.13;;;11.80;99.90;;;;;;4982310;28;20457;-30
2024/02/09 15:32:14;;;;;;;3.53;2.50;;;11.80;99.90;;;;;;4985586;28;20441;-28
2024/02/09 15:34:43;;;;;;;2.53;2.33;;;11.80;99.90;;;;;;5021576;28;20881;-30
2024/02/09 15:37:13;;;;;;;2.30;1.93;;;11.80;99.90;;;;;;5017310;28;20499;-32
2024/02/09 15:39:43;;;;;;;2.93;2.37;;;11.80;99.90;;;;;;4984216;28;20437;-33
2024/02/09 15:42:09;;;;;;;3.10;2.80;;;11.80;99.90;;;;;;5000190;28;20974;-29
2024/02/09 15:44:41;;;;;;;3.17;2.40;;;11.80;99.90;;;;;;5001316;28;20433;-30
2024/02/09 15:47:07;;;;;;;4.70;2.43;;;11.80;99.90;;;;;;4983679;28;20449;-31
2024/02/09 15:49:33;;;;;;;6.03;2.93;;;11.80;99.90;;;;;;5002222;28;20459;-27
2024/02/09 15:51:59;;;;;;;2.10;1.90;;;11.90;99.90;;;;;;4983996;28;20979;-29
2024/02/09 15:54:25;;;;;;;6.00;3.50;;;11.90;99.90;;;;;;5002433;28;20467;-30
2024/02/09 15:56:51;;;;;;;3.90;2.40;;;11.80;99.90;;;;;;5013221;28;20544;-28
2024/02/09 15:59:17;;;;;;;2.20;2.00;;;11.80;99.90;;;;;;5000620;28;20504;-28
2024/02/09 16:01:47;;;;;;;3.97;2.77;;;11.90;99.90;;;;;;4983785;28;20456;-32
2024/02/09 16:04:16;;;;;;;4.27;2.20;;;11.90;99.90;;;;;;4982268;28;20450;-30
2024/02/09 16:06:44;;;;;;;5.90;2.27;;;11.90;99.90;;;;;;4997020;28;20451;-32
2024/02/09 16:09:10;;;;;;;3.10;2.13;;;11.90;99.90;;;;;;5018885;28;21386;-28
2024/02/09 16:11:46;;;;;;;3.97;2.50;;;11.90;99.90;;;;;;4998515;28;20521;-32
2024/02/09 16:14:13;;;;;;;3.20;2.37;;;11.90;99.90;;;;;;4988045;28;20419;-33
2024/02/09 16:16:43;;;;;;;2.83;2.40;;;11.90;99.90;;;;;;5003862;28;20851;-30
2024/02/09 16:19:09;;;;;;;3.10;2.50;;;11.90;99.90;;;;;;5016619;28;20523;-32
2024/02/09 16:21:44;;;;;;;3.23;2.30;;;11.90;99.90;;;;;;5021674;28;20444;-34
2024/02/09 16:24:13;;;;;;;5.47;2.30;;;11.90;99.90;;;;;;4992057;28;20416;-33
2024/02/09 16:26:39;;;;;;;2.77;2.13;;;11.90;99.90;;;;;;5001993;28;20431;-32
2024/02/09 16:29:08;;;;;;;3.57;2.87;;;11.90;99.90;;;;;;5009841;28;21250;-34
2024/02/09 16:31:38;;;;;;;5.30;2.90;;;11.90;99.90;;;;;;4999906;28;20929;-31
2024/02/09 16:34:32;;;;;;;3.43;2.13;;;11.90;99.90;;;;;;5001469;28;20936;-31
2024/02/09 16:37:00;;;;;;;2.40;2.20;;;11.90;99.90;;;;;;5012664;28;20511;-30
2024/02/09 16:39:27;;;;;;;2.70;2.20;;;11.90;99.90;;;;;;5001272;28;20877;-29
2024/02/09 16:41:56;;;;;;;3.97;2.50;;;11.90;99.90;;;;;;5001344;28;20440;-29
2024/02/09 16:44:27;;;;;;;2.90;2.60;;;11.90;99.90;;;;;;5018647;28;20438;-28
2024/02/09 16:46:53;;;;;;;2.60;2.27;;;11.90;99.90;;;;;;4995615;28;20975;-31
2024/02/09 16:49:19;;;;;;;3.20;2.70;;;11.90;99.90;;;;;;4982942;28;20439;-29
2024/02/09 16:51:45;;;;;;;3.50;2.27;;;11.90;99.90;;;;;;5000882;28;21013;-28
2024/02/09 16:54:11;;;;;;;3.90;2.30;;;11.90;99.90;;;;;;4996640;28;20423;-30
2024/02/09 16:56:43;;;;;;;3.83;2.13;;;11.90;99.90;;;;;;4976288;28;20453;-29
2024/02/09 16:59:09;;;;;;;2.63;2.13;;;11.90;99.90;;;;;;5013120;28;20419;-32
2024/02/09 17:01:37;;;;;;;3.63;2.67;;;11.90;99.90;;;;;;5004859;28;20444;-29
2024/02/09 17:04:05;;;;;;;3.37;2.30;;;11.90;99.90;;;;;;5005424;28;20451;-31
2024/02/09 17:06:35;;;;;;;3.80;2.43;;;11.90;99.90;;;;;;4971370;28;20420;-32
2024/02/09 17:09:05;;;;;;;2.83;2.30;;;11.90;99.90;;;;;;5003855;28;20436;-31
2024/02/09 17:11:33;;;;;;;2.37;2.17;;;11.90;99.90;;;;;;5002736;28;20838;-30
2024/02/09 17:13:59;;;;;;;2.30;2.10;;;11.90;99.90;;;;;;5018874;28;20426;-32
2024/02/09 17:16:28;;;;;;;2.60;2.10;;;11.90;99.90;;;;;;5001471;28;20433;-30
2024/02/09 17:18:56;;;;;;;2.50;2.07;;;11.90;99.90;;;;;;5003294;28;20431;-33
2024/02/09 17:21:27;;;;;;;2.77;2.47;;;11.90;99.90;;;;;;5006495;28;21020;-31
2024/02/09 17:23:55;;;;;;;5.60;3.10;;;11.90;99.90;;;;;;5024662;28;20518;-28
2024/02/09 17:26:25;;;;;;;3.03;2.50;;;11.90;99.90;;;;;;5006546;28;20469;-28
2024/02/09 17:28:51;;;;;;;3.40;2.70;;;11.90;99.90;;;;;;4999954;28;20421;-33
2024/02/09 17:31:17;;;;;;;3.00;2.43;;;11.90;99.90;;;;;;5004808;28;21115;-34
2024/02/09 17:33:43;;;;;;;4.50;2.60;;;11.90;99.90;;;;;;5002541;28;20585;-27
2024/02/09 17:36:10;;;;;;;2.90;2.30;;;11.90;99.90;;;;;;5003044;28;20417;-30
2024/02/09 17:38:43;;;;;;;4.20;3.00;;;11.80;99.90;;;;;;5003901;28;20991;-31
2024/02/09 17:41:34;;;;;;;5.10;3.13;;;11.90;99.90;;;;;;5003277;28;20544;-30
2024/02/09 17:44:00;;;;;;;3.40;3.10;;;11.90;99.90;;;;;;5002905;28;21269;-29
2024/02/09 17:46:31;;;;;;;6.20;3.10;;;11.80;99.90;;;;;;5010183;28;20971;-34
2024/02/09 17:48:59;;;;;;;3.63;2.80;;;11.80;99.90;;;;;;4989239;28;20863;-27
2024/02/09 17:51:26;;;;;;;3.80;3.10;;;11.80;99.90;;;;;;5001277;28;20440;-31
2024/02/09 17:53:51;;;;;;;4.80;2.47;;;11.80;99.90;;;;;;4985940;28;20413;-27
2024/02/09 17:56:22;;;;;;;2.87;2.47;;;11.80;99.90;;;;;;4986265;28;20420;-28
2024/02/09 17:58:50;;;;;;;3.97;2.90;;;11.90;99.90;;;;;;5004034;28;20409;-31
2024/02/09 18:01:16;;;;;;;4.73;2.40;;;11.80;99.90;;;;;;4970047;28;20408;-32
2024/02/09 18:03:43;;;;;;;3.47;2.43;;;11.80;99.90;;;;;;5003413;28;20435;-31
2024/02/09 18:06:09;;;;;;;3.23;2.70;;;11.90;99.90;;;;;;5003621;28;20410;-34
2024/02/09 18:08:38;;;;;;;6.50;2.70;;;11.80;99.90;;;;;;5002332;28;20955;-31
2024/02/09 18:11:09;;;;;;;3.10;2.80;;;11.80;99.90;;;;;;5003230;28;20472;-28
2024/02/09 18:13:35;;;;;;;3.10;2.80;;;11.80;99.90;;;;;;5004816;28;20966;-29
2024/02/09 18:16:03;;;;;;;4.53;2.83;;;11.80;99.90;;;;;;5008499;28;21139;-29
2024/02/09 18:18:30;;;;;;;3.47;2.90;;;11.80;99.90;;;;;;4984015;28;20453;-30
2024/02/09 18:20:56;;;;;;;3.77;2.87;;;11.80;99.90;;;;;;4983933;28;20436;-28
2024/02/09 18:23:22;;;;;;;4.13;3.40;;;11.80;99.90;;;;;;4989736;28;21120;-30
2024/02/09 18:25:53;;;;;;;4.20;2.50;;;11.80;99.90;;;;;;4994009;28;20560;-32
2024/02/09 18:28:27;;;;;;;3.60;3.00;;;11.80;99.90;;;;;;4982419;28;20430;-27
2024/02/09 18:30:56;;;;;;;3.33;2.93;;;11.80;99.90;;;;;;4965698;28;20604;-28
2024/02/09 18:33:21;;;;;;;4.73;2.93;;;11.80;99.90;;;;;;5002483;28;20456;-28
2024/02/09 18:35:52;;;;;;;5.37;2.93;;;11.80;99.90;;;;;;5015120;28;20416;-30
2024/02/09 18:38:21;;;;;;;4.40;3.23;;;11.80;99.90;;;;;;5018408;28;20476;-30
2024/02/09 18:40:50;;;;;;;2.90;2.60;;;11.80;99.90;;;;;;4997522;28;20422;-30
2024/02/09 18:43:16;;;;;;;3.20;2.60;;;11.80;99.90;;;;;;4983320;28;20441;-30
2024/02/09 18:45:44;;;;;;;3.80;2.87;;;11.80;99.90;;;;;;4983020;28;20728;-32
2024/02/09 18:48:14;;;;;;;3.40;2.77;;;11.80;99.90;;;;;;4998339;28;20456;-28
2024/02/09 18:50:43;;;;;;;3.20;2.63;;;11.80;99.90;;;;;;5002437;28;20473;-28
2024/02/09 18:53:11;;;;;;;6.83;2.80;;;11.80;99.90;;;;;;5002581;28;20440;-32
2024/02/09 18:55:40;;;;;;;4.37;2.90;;;11.80;99.90;;;;;;5003439;28;20421;-27
2024/02/09 18:58:06;;;;;;;4.40;3.00;;;11.80;99.90;;;;;;5003615;28;20526;-32